Impacts TAF Board
For situational awareness. Not to be used for flight planning purposes.
IDs:

KBWI - Baltimore-Washington, MD, US

Issued at 2031 UTC 20 Jun 2019
Updated at 2207 UTC 20 Jun 2019
Potential Impact None Slight Moderate High
Time<<21/11Z 21/12Z 21/13Z 21/14Z 21/15Z 21/16Z 21/17Z 21/18Z 21/19Z 21/20Z 21/21Z 21/22Z 21/23Z>>
Type PRVL PRVL PRVL PRVL PRVL PRVL PRVL PRVL PRVL PRVL PRVL PRVL PRVL
VIS >6 >6 >6 >6 >6 >6 >6 >6 >6 >6 >6 >6 >6
CIG 70 70 -- -- -- -- -- -- -- -- -- -- --
Cover BKN BKN SCT SCT SCT SCT SCT SCT SCT SCT SCT SCT SCT
FltCat VFR VFR VFR VFR VFR VFR VFR VFR VFR VFR VFR VFR VFR
WX -- -- -- -- -- -- -- -- -- -- -- -- --
WDir 290 290 310 310 310 310 310 310 310 310 310 310 310
WSpd 10 10 15 15 15 15 15 15 15 15 15 15 15
WGst 21 21 30 30 30 30 30 30 30 30 30 30 30
Raw TAF
KBWI 202031Z 2021/2124 28015G21KT P6SM SCT050
  FM210000 25008KT P6SM SCT035 BKN070
  FM210900 29010G21KT P6SM SCT030 BKN070
  FM211300 31015G30KT P6SM FEW035 SCT050


METAR Board
Radar Display
Forecast Discussion
For situational awareness. Not to be used for flight planning purposes.